sensor_id;sensor_type;location;lat;lon;timestamp;pressure;altitude;pressure_sealevel;temperature;humidity
48790;BME280;41718;51.980;5.734;2023-02-19T00:03:10;101559.38;;;8.62;100.00
48790;BME280;41718;51.980;5.734;2023-02-19T00:08:12;101551.66;;;8.62;100.00
48790;BME280;41718;51.980;5.734;2023-02-19T00:13:21;101550.66;;;8.59;100.00
48790;BME280;41718;51.980;5.734;2023-02-19T00:18:29;101547.09;;;8.55;100.00
48790;BME280;41718;51.980;5.734;2023-02-19T00:23:31;101539.31;;;8.54;100.00
48790;BME280;41718;51.980;5.734;2023-02-19T00:28:35;101549.63;;;8.54;100.00
48790;BME280;41718;51.980;5.734;2023-02-19T00:33:38;101540.09;;;8.51;100.00
48790;BME280;41718;51.980;5.734;2023-02-19T00:38:41;101539.13;;;8.49;100.00
48790;BME280;41718;51.980;5.734;2023-02-19T00:43:58;101553.69;;;8.47;100.00
48790;BME280;41718;51.980;5.734;2023-02-19T00:49:00;101544.13;;;8.44;100.00
48790;BME280;41718;51.980;5.734;2023-02-19T00:54:06;101532.91;;;8.42;100.00
48790;BME280;41718;51.980;5.734;2023-02-19T00:59:11;101544.03;;;8.41;100.00
48790;BME280;41718;51.980;5.734;2023-02-19T01:04:13;101547.44;;;8.40;100.00
48790;BME280;41718;51.980;5.734;2023-02-19T01:09:16;101553.47;;;8.41;100.00
48790;BME280;41718;51.980;5.734;2023-02-19T01:14:18;101540.63;;;8.42;100.00
48790;BME280;41718;51.980;5.734;2023-02-19T01:19:19;101545.00;;;8.45;100.00
48790;BME280;41718;51.980;5.734;2023-02-19T01:24:24;101552.69;;;8.43;100.00
48790;BME280;41718;51.980;5.734;2023-02-19T01:29:25;101563.00;;;8.43;100.00
48790;BME280;41718;51.980;5.734;2023-02-19T01:34:26;101564.75;;;8.44;100.00
48790;BME280;41718;51.980;5.734;2023-02-19T01:39:30;101563.88;;;8.44;100.00
48790;BME280;41718;51.980;5.734;2023-02-19T01:49:41;101570.50;;;8.36;100.00
48790;BME280;41718;51.980;5.734;2023-02-19T01:54:49;101583.16;;;8.31;100.00
48790;BME280;41718;51.980;5.734;2023-02-19T01:59:54;101575.28;;;8.27;100.00
48790;BME280;41718;51.980;5.734;2023-02-19T02:04:57;101577.75;;;8.23;100.00
48790;BME280;41718;51.980;5.734;2023-02-19T02:10:00;101574.31;;;8.23;100.00
48790;BME280;41718;51.980;5.734;2023-02-19T02:15:21;101581.06;;;8.21;100.00
48790;BME280;41718;51.980;5.734;2023-02-19T02:20:35;101575.00;;;8.19;100.00
48790;BME280;41718;51.980;5.734;2023-02-19T02:30:55;101575.75;;;8.16;100.00
48790;BME280;41718;51.980;5.734;2023-02-19T02:36:04;101573.19;;;8.16;100.00
48790;BME280;41718;51.980;5.734;2023-02-19T02:41:06;101571.50;;;8.17;100.00
48790;BME280;41718;51.980;5.734;2023-02-19T02:46:10;101569.63;;;8.13;100.00
48790;BME280;41718;51.980;5.734;2023-02-19T02:51:18;101578.25;;;8.13;100.00
48790;BME280;41718;51.980;5.734;2023-02-19T02:56:22;101583.38;;;8.13;100.00
48790;BME280;41718;51.980;5.734;2023-02-19T03:01:31;101588.50;;;8.12;100.00
48790;BME280;41718;51.980;5.734;2023-02-19T03:06:55;101589.28;;;8.11;100.00
48790;BME280;41718;51.980;5.734;2023-02-19T03:12:01;101590.94;;;8.09;100.00
48790;BME280;41718;51.980;5.734;2023-02-19T03:17:50;101601.44;;;8.13;100.00
48790;BME280;41718;51.980;5.734;2023-02-19T03:23:12;101608.34;;;8.14;100.00
48790;BME280;41718;51.980;5.734;2023-02-19T03:28:16;101602.25;;;8.12;100.00
48790;BME280;41718;51.980;5.734;2023-02-19T03:33:42;101604.09;;;8.16;100.00
48790;BME280;41718;51.980;5.734;2023-02-19T03:38:58;101611.91;;;8.18;100.00
48790;BME280;41718;51.980;5.734;2023-02-19T03:55:10;101619.69;;;8.19;100.00
48790;BME280;41718;51.980;5.734;2023-02-19T04:00:16;101633.59;;;8.23;100.00
48790;BME280;41718;51.980;5.734;2023-02-19T04:05:21;101637.69;;;8.18;100.00
48790;BME280;41718;51.980;5.734;2023-02-19T04:10:24;101649.69;;;8.17;100.00
48790;BME280;41718;51.980;5.734;2023-02-19T04:15:30;101653.16;;;8.18;100.00
48790;BME280;41718;51.980;5.734;2023-02-19T04:20:38;101658.22;;;8.16;100.00
48790;BME280;41718;51.980;5.734;2023-02-19T04:25:43;101662.44;;;8.14;100.00
48790;BME280;41718;51.980;5.734;2023-02-19T04:30:45;101668.44;;;8.13;100.00
48790;BME280;41718;51.980;5.734;2023-02-19T04:35:47;101671.88;;;8.14;100.00
48790;BME280;41718;51.980;5.734;2023-02-19T04:40:48;101675.38;;;8.16;100.00
48790;BME280;41718;51.980;5.734;2023-02-19T04:45:51;101691.69;;;8.15;100.00
48790;BME280;41718;51.980;5.734;2023-02-19T04:50:53;101707.09;;;8.13;100.00
48790;BME280;41718;51.980;5.734;2023-02-19T04:55:54;101714.69;;;8.10;100.00
48790;BME280;41718;51.980;5.734;2023-02-19T05:00:56;101720.72;;;8.11;100.00
48790;BME280;41718;51.980;5.734;2023-02-19T05:06:01;101729.59;;;8.17;100.00
48790;BME280;41718;51.980;5.734;2023-02-19T05:11:04;101744.22;;;8.18;100.00
48790;BME280;41718;51.980;5.734;2023-02-19T05:16:10;101741.53;;;8.15;100.00
48790;BME280;41718;51.980;5.734;2023-02-19T05:21:14;101745.81;;;8.15;100.00
48790;BME280;41718;51.980;5.734;2023-02-19T05:26:20;101749.19;;;8.14;100.00
48790;BME280;41718;51.980;5.734;2023-02-19T05:31:22;101753.47;;;8.13;100.00
48790;BME280;41718;51.980;5.734;2023-02-19T05:36:25;101765.50;;;8.13;100.00
48790;BME280;41718;51.980;5.734;2023-02-19T05:41:28;101767.19;;;8.12;100.00
48790;BME280;41718;51.980;5.734;2023-02-19T05:46:29;101757.81;;;8.14;100.00
48790;BME280;41718;51.980;5.734;2023-02-19T05:51:31;101765.44;;;8.11;100.00
48790;BME280;41718;51.980;5.734;2023-02-19T05:56:37;101767.19;;;8.12;100.00
48790;BME280;41718;51.980;5.734;2023-02-19T06:01:39;101782.66;;;8.12;100.00
48790;BME280;41718;51.980;5.734;2023-02-19T06:06:41;101783.34;;;8.08;100.00
48790;BME280;41718;51.980;5.734;2023-02-19T06:11:43;101803.06;;;8.08;100.00
48790;BME280;41718;51.980;5.734;2023-02-19T06:16:45;101793.69;;;8.10;100.00
48790;BME280;41718;51.980;5.734;2023-02-19T06:21:49;101809.16;;;8.10;100.00
48790;BME280;41718;51.980;5.734;2023-02-19T06:26:50;101823.50;;;8.03;100.00
48790;BME280;41718;51.980;5.734;2023-02-19T06:31:52;101841.69;;;8.06;100.00
48790;BME280;41718;51.980;5.734;2023-02-19T06:36:53;101839.97;;;8.07;100.00
48790;BME280;41718;51.980;5.734;2023-02-19T06:41:56;101839.00;;;8.05;100.00
48790;BME280;41718;51.980;5.734;2023-02-19T06:46:57;101843.25;;;8.03;100.00
48790;BME280;41718;51.980;5.734;2023-02-19T06:51:59;101852.72;;;8.04;100.00
48790;BME280;41718;51.980;5.734;2023-02-19T06:57:00;101862.91;;;8.01;100.00
48790;BME280;41718;51.980;5.734;2023-02-19T07:02:02;101867.06;;;7.97;100.00
48790;BME280;41718;51.980;5.734;2023-02-19T07:07:04;101882.13;;;7.88;100.00
48790;BME280;41718;51.980;5.734;2023-02-19T07:12:05;101886.94;;;7.80;100.00
48790;BME280;41718;51.980;5.734;2023-02-19T07:17:07;101896.31;;;7.78;100.00
48790;BME280;41718;51.980;5.734;2023-02-19T07:22:08;101900.50;;;7.76;100.00
48790;BME280;41718;51.980;5.734;2023-02-19T07:27:10;101921.03;;;7.75;100.00
48790;BME280;41718;51.980;5.734;2023-02-19T07:32:11;101930.41;;;7.73;100.00
48790;BME280;41718;51.980;5.734;2023-02-19T07:37:13;101939.75;;;7.70;100.00
48790;BME280;41718;51.980;5.734;2023-02-19T07:42:14;101946.59;;;7.70;100.00
48790;BME280;41718;51.980;5.734;2023-02-19T07:47:16;101957.06;;;7.73;100.00
48790;BME280;41718;51.980;5.734;2023-02-19T07:52:17;101950.25;;;7.75;100.00
48790;BME280;41718;51.980;5.734;2023-02-19T07:57:19;101945.03;;;7.74;100.00
48790;BME280;41718;51.980;5.734;2023-02-19T08:02:20;101967.63;;;7.79;100.00
48790;BME280;41718;51.980;5.734;2023-02-19T08:07:40;101963.56;;;7.84;100.00
48790;BME280;41718;51.980;5.734;2023-02-19T08:12:42;101968.91;;;7.89;100.00
48790;BME280;41718;51.980;5.734;2023-02-19T08:18:02;101989.38;;;7.86;100.00
48790;BME280;41718;51.980;5.734;2023-02-19T08:23:04;101994.69;;;7.89;100.00
48790;BME280;41718;51.980;5.734;2023-02-19T08:28:07;101994.25;;;7.99;100.00
48790;BME280;41718;51.980;5.734;2023-02-19T08:33:10;102005.44;;;8.00;100.00
48790;BME280;41718;51.980;5.734;2023-02-19T08:38:13;102007.88;;;7.96;100.00
48790;BME280;41718;51.980;5.734;2023-02-19T08:43:16;102017.44;;;7.99;100.00
48790;BME280;41718;51.980;5.734;2023-02-19T08:48:19;102025.59;;;8.08;100.00
48790;BME280;41718;51.980;5.734;2023-02-19T08:53:21;102037.53;;;8.06;100.00
48790;BME280;41718;51.980;5.734;2023-02-19T08:58:23;102039.63;;;8.15;100.00
48790;BME280;41718;51.980;5.734;2023-02-19T09:03:26;102042.81;;;8.09;100.00
48790;BME280;41718;51.980;5.734;2023-02-19T09:08:27;102041.94;;;8.09;100.00
48790;BME280;41718;51.980;5.734;2023-02-19T09:13:29;102033.72;;;7.98;100.00
48790;BME280;41718;51.980;5.734;2023-02-19T09:18:31;102044.28;;;8.04;100.00
48790;BME280;41718;51.980;5.734;2023-02-19T09:23:34;102066.53;;;8.21;100.00
48790;BME280;41718;51.980;5.734;2023-02-19T09:28:36;102073.53;;;8.24;100.00
48790;BME280;41718;51.980;5.734;2023-02-19T09:33:44;102075.97;;;8.21;100.00
48790;BME280;41718;51.980;5.734;2023-02-19T09:38:45;102088.50;;;8.33;100.00
48790;BME280;41718;51.980;5.734;2023-02-19T09:43:47;102108.22;;;8.50;100.00
48790;BME280;41718;51.980;5.734;2023-02-19T09:48:50;102114.00;;;8.44;100.00
48790;BME280;41718;51.980;5.734;2023-02-19T09:53:54;102124.97;;;8.60;100.00
48790;BME280;41718;51.980;5.734;2023-02-19T09:58:58;102134.63;;;8.64;100.00
48790;BME280;41718;51.980;5.734;2023-02-19T10:04:00;102151.44;;;8.56;100.00
48790;BME280;41718;51.980;5.734;2023-02-19T10:14:23;102172.03;;;8.54;100.00
48790;BME280;41718;51.980;5.734;2023-02-19T10:19:31;102175.59;;;8.38;100.00
48790;BME280;41718;51.980;5.734;2023-02-19T10:24:33;102190.13;;;8.36;100.00
48790;BME280;41718;51.980;5.734;2023-02-19T10:29:37;102208.25;;;8.38;100.00
48790;BME280;41718;51.980;5.734;2023-02-19T10:34:39;102209.88;;;8.36;100.00
48790;BME280;41718;51.980;5.734;2023-02-19T10:39:46;102224.34;;;8.34;100.00
48790;BME280;41718;51.980;5.734;2023-02-19T10:44:56;102224.69;;;8.40;100.00
48790;BME280;41718;51.980;5.734;2023-02-19T10:50:02;102221.56;;;8.47;100.00
48790;BME280;41718;51.980;5.734;2023-02-19T10:55:15;102230.25;;;8.49;100.00
48790;BME280;41718;51.980;5.734;2023-02-19T11:00:26;102235.16;;;8.62;100.00
48790;BME280;41718;51.980;5.734;2023-02-19T11:05:30;102224.28;;;8.50;100.00
48790;BME280;41718;51.980;5.734;2023-02-19T11:10:39;102198.84;;;8.58;100.00
48790;BME280;41718;51.980;5.734;2023-02-19T11:15:50;102184.69;;;8.88;100.00
48790;BME280;41718;51.980;5.734;2023-02-19T11:20:56;102198.44;;;8.68;100.00
48790;BME280;41718;51.980;5.734;2023-02-19T11:26:05;102191.38;;;8.64;100.00
48790;BME280;41718;51.980;5.734;2023-02-19T11:31:26;102194.44;;;8.74;100.00
48790;BME280;41718;51.980;5.734;2023-02-19T11:36:36;102207.44;;;8.39;100.00
48790;BME280;41718;51.980;5.734;2023-02-19T12:19:39;102235.94;;;7.88;100.00
48790;BME280;41718;51.980;5.734;2023-02-19T12:45:40;102242.13;;;7.92;100.00
48790;BME280;41718;51.980;5.734;2023-02-19T12:50:50;102256.72;;;7.74;100.00
48790;BME280;41718;51.980;5.734;2023-02-19T12:55:57;102253.59;;;7.63;100.00
48790;BME280;41718;51.980;5.734;2023-02-19T13:01:01;102259.00;;;7.67;100.00
48790;BME280;41718;51.980;5.734;2023-02-19T13:06:25;102267.81;;;7.73;100.00
48790;BME280;41718;51.980;5.734;2023-02-19T13:11:43;102275.22;;;7.83;100.00
48790;BME280;41718;51.980;5.734;2023-02-19T13:16:53;102279.53;;;7.84;100.00
48790;BME280;41718;51.980;5.734;2023-02-19T13:22:06;102294.56;;;7.92;100.00
48790;BME280;41718;51.980;5.734;2023-02-19T13:27:47;102302.88;;;7.87;100.00
48790;BME280;41718;51.980;5.734;2023-02-19T13:33:17;102309.94;;;7.91;100.00
48790;BME280;41718;51.980;5.734;2023-02-19T13:38:22;102321.88;;;7.89;100.00
48790;BME280;41718;51.980;5.734;2023-02-19T13:43:32;102330.09;;;7.82;100.00
48790;BME280;41718;51.980;5.734;2023-02-19T13:48:38;102330.34;;;7.70;100.00
48790;BME280;41718;51.980;5.734;2023-02-19T14:14:49;102363.06;;;7.06;100.00
48790;BME280;41718;51.980;5.734;2023-02-19T14:19:57;102371.16;;;6.97;100.00
48790;BME280;41718;51.980;5.734;2023-02-19T14:24:59;102380.97;;;6.88;100.00
48790;BME280;41718;51.980;5.734;2023-02-19T14:30:03;102381.03;;;6.89;100.00
48790;BME280;41718;51.980;5.734;2023-02-19T14:35:05;102363.44;;;6.81;100.00
48790;BME280;41718;51.980;5.734;2023-02-19T14:40:22;102367.44;;;6.76;100.00
48790;BME280;41718;51.980;5.734;2023-02-19T14:45:25;102360.88;;;6.81;100.00
48790;BME280;41718;51.980;5.734;2023-02-19T14:50:30;102342.00;;;6.66;100.00
48790;BME280;41718;51.980;5.734;2023-02-19T14:55:36;102326.94;;;6.57;100.00
48790;BME280;41718;51.980;5.734;2023-02-19T15:00:40;102312.72;;;6.95;100.00
48790;BME280;41718;51.980;5.734;2023-02-19T15:05:46;102315.75;;;6.71;100.00
48790;BME280;41718;51.980;5.734;2023-02-19T15:10:49;102309.72;;;6.71;100.00
48790;BME280;41718;51.980;5.734;2023-02-19T15:15:51;102308.00;;;6.55;100.00
48790;BME280;41718;51.980;5.734;2023-02-19T15:21:01;102300.13;;;6.68;100.00
48790;BME280;41718;51.980;5.734;2023-02-19T15:26:18;102328.75;;;6.74;100.00
48790;BME280;41718;51.980;5.734;2023-02-19T15:31:22;102329.63;;;6.58;100.00
48790;BME280;41718;51.980;5.734;2023-02-19T15:36:29;102340.47;;;6.53;100.00
48790;BME280;41718;51.980;5.734;2023-02-19T15:41:33;102362.75;;;6.69;100.00
48790;BME280;41718;51.980;5.734;2023-02-19T15:46:35;102362.19;;;6.43;100.00
48790;BME280;41718;51.980;5.734;2023-02-19T15:52:02;102364.03;;;6.46;100.00
48790;BME280;41718;51.980;5.734;2023-02-19T15:57:13;102370.16;;;6.48;100.00
48790;BME280;41718;51.980;5.734;2023-02-19T16:02:20;102372.34;;;6.56;100.00
48790;BME280;41718;51.980;5.734;2023-02-19T16:07:25;102369.44;;;6.50;100.00
48790;BME280;41718;51.980;5.734;2023-02-19T16:12:27;102377.34;;;6.53;100.00
48790;BME280;41718;51.980;5.734;2023-02-19T16:17:32;102376.81;;;6.44;100.00
48790;BME280;41718;51.980;5.734;2023-02-19T16:22:40;102414.22;;;6.39;100.00
48790;BME280;41718;51.980;5.734;2023-02-19T16:27:44;102414.13;;;6.37;100.00
48790;BME280;41718;51.980;5.734;2023-02-19T16:32:46;102415.91;;;6.38;100.00
48790;BME280;41718;51.980;5.734;2023-02-19T16:37:57;102429.00;;;6.28;100.00
48790;BME280;41718;51.980;5.734;2023-02-19T16:43:23;102429.00;;;6.28;100.00
48790;BME280;41718;51.980;5.734;2023-02-19T16:48:25;102424.34;;;6.21;100.00
48790;BME280;41718;51.980;5.734;2023-02-19T16:53:28;102424.34;;;6.21;100.00
48790;BME280;41718;51.980;5.734;2023-02-19T16:58:32;102433.09;;;6.10;100.00
48790;BME280;41718;51.980;5.734;2023-02-19T17:03:37;102447.97;;;6.16;100.00
48790;BME280;41718;51.980;5.734;2023-02-19T17:08:43;102441.75;;;6.12;100.00
48790;BME280;41718;51.980;5.734;2023-02-19T17:13:45;102438.69;;;6.03;100.00
48790;BME280;41718;51.980;5.734;2023-02-19T17:18:48;102436.09;;;6.03;100.00
48790;BME280;41718;51.980;5.734;2023-02-19T17:23:50;102441.25;;;6.03;100.00
48790;BME280;41718;51.980;5.734;2023-02-19T17:29:05;102450.34;;;6.13;100.00
48790;BME280;41718;51.980;5.734;2023-02-19T17:34:09;102448.16;;;6.04;100.00
48790;BME280;41718;51.980;5.734;2023-02-19T17:39:17;102456.56;;;6.01;100.00
48790;BME280;41718;51.980;5.734;2023-02-19T17:44:23;102449.47;;;5.97;100.00
48790;BME280;41718;51.980;5.734;2023-02-19T17:49:26;102456.81;;;5.91;100.00
48790;BME280;41718;51.980;5.734;2023-02-19T17:54:27;102469.75;;;5.93;100.00
48790;BME280;41718;51.980;5.734;2023-02-19T17:59:29;102475.69;;;5.92;100.00
48790;BME280;41718;51.980;5.734;2023-02-19T18:04:31;102491.66;;;5.88;100.00
48790;BME280;41718;51.980;5.734;2023-02-19T18:09:37;102487.84;;;5.81;100.00
48790;BME280;41718;51.980;5.734;2023-02-19T18:14:44;102486.66;;;5.76;100.00
48790;BME280;41718;51.980;5.734;2023-02-19T18:19:58;102485.78;;;5.75;100.00
48790;BME280;41718;51.980;5.734;2023-02-19T18:24:59;102481.63;;;5.77;100.00
48790;BME280;41718;51.980;5.734;2023-02-19T18:30:01;102478.69;;;5.71;100.00
48790;BME280;41718;51.980;5.734;2023-02-19T18:35:06;102468.50;;;5.73;100.00
48790;BME280;41718;51.980;5.734;2023-02-19T18:40:08;102473.88;;;5.63;100.00
48790;BME280;41718;51.980;5.734;2023-02-19T18:45:12;102464.13;;;5.57;100.00
48790;BME280;41718;51.980;5.734;2023-02-19T18:50:15;102467.75;;;5.61;100.00
48790;BME280;41718;51.980;5.734;2023-02-19T18:55:16;102469.78;;;5.51;100.00
48790;BME280;41718;51.980;5.734;2023-02-19T19:00:20;102483.41;;;5.50;100.00
48790;BME280;41718;51.980;5.734;2023-02-19T19:05:23;102482.22;;;5.45;100.00
48790;BME280;41718;51.980;5.734;2023-02-19T19:10:27;102491.91;;;5.36;100.00
48790;BME280;41718;51.980;5.734;2023-02-19T19:15:35;102477.03;;;5.30;100.00
48790;BME280;41718;51.980;5.734;2023-02-19T19:20:40;102476.34;;;5.20;100.00
48790;BME280;41718;51.980;5.734;2023-02-19T19:26:05;102482.84;;;5.15;100.00
48790;BME280;41718;51.980;5.734;2023-02-19T19:31:07;102477.84;;;5.03;100.00
48790;BME280;41718;51.980;5.734;2023-02-19T19:36:09;102485.72;;;4.93;100.00
48790;BME280;41718;51.980;5.734;2023-02-19T19:41:14;102489.56;;;4.86;100.00
48790;BME280;41718;51.980;5.734;2023-02-19T19:46:20;102496.09;;;4.81;100.00
48790;BME280;41718;51.980;5.734;2023-02-19T19:51:22;102510.28;;;4.76;100.00
48790;BME280;41718;51.980;5.734;2023-02-19T19:56:27;102497.75;;;4.67;100.00
48790;BME280;41718;51.980;5.734;2023-02-19T20:01:29;102506.91;;;4.64;100.00
48790;BME280;41718;51.980;5.734;2023-02-19T20:06:40;102498.53;;;4.53;100.00
48790;BME280;41718;51.980;5.734;2023-02-19T20:11:51;102502.88;;;4.54;100.00
48790;BME280;41718;51.980;5.734;2023-02-19T20:16:54;102504.34;;;4.50;100.00
48790;BME280;41718;51.980;5.734;2023-02-19T20:21:56;102496.44;;;4.47;100.00
48790;BME280;41718;51.980;5.734;2023-02-19T20:26:59;102495.16;;;4.41;100.00
48790;BME280;41718;51.980;5.734;2023-02-19T20:32:02;102487.47;;;4.41;100.00
48790;BME280;41718;51.980;5.734;2023-02-19T20:37:05;102478.88;;;4.40;100.00
48790;BME280;41718;51.980;5.734;2023-02-19T20:42:08;102477.69;;;4.35;100.00
48790;BME280;41718;51.980;5.734;2023-02-19T20:47:12;102500.66;;;4.34;100.00
48790;BME280;41718;51.980;5.734;2023-02-19T20:52:15;102499.56;;;4.30;100.00
48790;BME280;41718;51.980;5.734;2023-02-19T20:57:17;102491.94;;;4.18;100.00
48790;BME280;41718;51.980;5.734;2023-02-19T21:02:22;102503.75;;;4.16;100.00
48790;BME280;41718;51.980;5.734;2023-02-19T21:07:25;102497.91;;;4.06;100.00
48790;BME280;41718;51.980;5.734;2023-02-19T21:12:37;102486.56;;;4.02;100.00
48790;BME280;41718;51.980;5.734;2023-02-19T21:17:46;102481.16;;;3.97;100.00
48790;BME280;41718;51.980;5.734;2023-02-19T21:22:48;102475.81;;;3.94;100.00
48790;BME280;41718;51.980;5.734;2023-02-19T21:27:49;102458.78;;;3.95;100.00
48790;BME280;41718;51.980;5.734;2023-02-19T21:32:52;102466.84;;;3.88;100.00
48790;BME280;41718;51.980;5.734;2023-02-19T21:37:56;102471.72;;;3.85;100.00
48790;BME280;41718;51.980;5.734;2023-02-19T21:42:59;102471.44;;;3.80;100.00
48790;BME280;41718;51.980;5.734;2023-02-19T21:48:01;102470.75;;;3.83;100.00
48790;BME280;41718;51.980;5.734;2023-02-19T21:53:04;102481.69;;;3.80;100.00
48790;BME280;41718;51.980;5.734;2023-02-19T21:58:06;102480.91;;;3.81;100.00
48790;BME280;41718;51.980;5.734;2023-02-19T22:03:13;102480.28;;;3.85;100.00
48790;BME280;41718;51.980;5.734;2023-02-19T22:08:15;102478.34;;;3.81;100.00
48790;BME280;41718;51.980;5.734;2023-02-19T22:13:21;102466.00;;;3.76;100.00
48790;BME280;41718;51.980;5.734;2023-02-19T22:18:23;102480.66;;;3.78;100.00
48790;BME280;41718;51.980;5.734;2023-02-19T22:23:26;102472.09;;;3.78;100.00
48790;BME280;41718;51.980;5.734;2023-02-19T22:28:27;102471.44;;;3.80;100.00
48790;BME280;41718;51.980;5.734;2023-02-19T22:33:29;102468.44;;;3.74;100.00
48790;BME280;41718;51.980;5.734;2023-02-19T22:38:32;102461.34;;;3.70;100.00
48790;BME280;41718;51.980;5.734;2023-02-19T22:43:33;102452.97;;;3.72;100.00
48790;BME280;41718;51.980;5.734;2023-02-19T22:48:35;102455.34;;;3.69;100.00
48790;BME280;41718;51.980;5.734;2023-02-19T22:53:36;102446.78;;;3.69;100.00
48790;BME280;41718;51.980;5.734;2023-02-19T22:58:39;102447.66;;;3.69;100.00
48790;BME280;41718;51.980;5.734;2023-02-19T23:08:51;102442.13;;;3.63;100.00
48790;BME280;41718;51.980;5.734;2023-02-19T23:13:54;102434.09;;;3.70;100.00
48790;BME280;41718;51.980;5.734;2023-02-19T23:18:55;102426.72;;;3.75;100.00
48790;BME280;41718;51.980;5.734;2023-02-19T23:23:57;102409.81;;;3.90;100.00
48790;BME280;41718;51.980;5.734;2023-02-19T23:28:59;102414.22;;;4.05;100.00
48790;BME280;41718;51.980;5.734;2023-02-19T23:34:01;102414.88;;;4.02;100.00
48790;BME280;41718;51.980;5.734;2023-02-19T23:39:04;102416.59;;;4.15;100.00
48790;BME280;41718;51.980;5.734;2023-02-19T23:44:05;102431.56;;;4.09;100.00
48790;BME280;41718;51.980;5.734;2023-02-19T23:49:07;102430.66;;;4.08;100.00
48790;BME280;41718;51.980;5.734;2023-02-19T23:54:09;102431.66;;;4.10;100.00
48790;BME280;41718;51.980;5.734;2023-02-19T23:59:11;102422.97;;;4.08;100.00
